Saint Lawrence, South Dakota
Current Conditions -  °F | °C
As of 1:55 PM on Friday 19 Dec 2014 (Local Time) from KHON Reporting Station
Haze Haze  
Wind Chill: 20°   Ceiling: 500
Heat Index: 30°   Visibility: 4mi
Dew Point: 27°   Wind: 13mph
Humidity: 88%   Direction: 170°S
Pressure: 30.03"   Gusts: NA
Location:  44.52°N, 98.94°W
Report Text: KHON 191955Z AUTO 17011KT 4SM BR OVC005 M01/M03 A3003 RMK AO2 SLP186 T10111028
Loading
Personal Weather Stations






























Interactive Weather Map New forecast layout! Learn more

10-Day Weather Forecast

Advertisements
Track Severe Weather on mobile